Buffalo, New York
Current Conditions -  °F | °C
As of 9:54 PM on Wednesday 26 Nov 2014 (Local Time) from KBUF Reporting Station
Light Snow Light Snow  
Wind Chill: -5°   Ceiling: 3200
Heat Index: -1°   Visibility: 9mi
Dew Point: -4°   Wind: 7mph
Humidity: 82%   Direction: 50°NE
Pressure: 30.05"   Gusts: NA
Location:  42.89°N, 78.88°W
Report Text: KBUF 270254Z 05006KT 9SM -SN SCT014 BKN032 OVC050 M01/M04 A3005 RMK AO2 SLP183 PCPN VRY LGT P0000 60000 T10111039 56002
Loading
Personal Weather Stations






























Interactive Weather Map New forecast layout! Learn more

10-Day Weather Forecast

Advertisements
Track Severe Weather on mobile